This is the latest recevied weather packets stored in our database for station/object IU8UOQ-3. If no packets are shown the sender has not sent any weather packets the latest 1 day(s).
| Time | Temp. | Humidity | Pressure | Rain* | Wind** | Luminosity | Snow |
|---|---|---|---|---|---|---|---|
| 1788633380 | 32.78° C | 46% | 1069.4 hPa | - | - | - | - |
| 1788632175 | 32.22° C | 46% | 1069.2 hPa | - | - | - | - |
| 1788630971 | 32.22° C | 46% | 1069.1 hPa | - | - | - | - |
| 1788629766 | 32.78° C | 45% | 1069.1 hPa | - | - | - | - |
| 1788628561 | 32.22° C | 45% | 1069 hPa | - | - | - | - |
| 1788627357 | 32.22° C | 45% | 1068.8 hPa | - | - | - | - |
| 1788626151 | 31.67° C | 46% | 1068.8 hPa | - | - | - | - |
| 1788624946 | 31.11° C | 46% | 1068.9 hPa | - | - | - | - |
| 1788623741 | 31.67° C | 44% | 1068.7 hPa | - | - | - | - |
| 1788621167 | 31.11° C | 42% | 1068.7 hPa | - | - | - | - |
| 1788619961 | 31.11° C | 46% | 1068.8 hPa | - | - | - | - |
| 1788618756 | 31.11° C | 47% | 1068.8 hPa | - | - | - | - |
| 1788617552 | 31.11° C | 48% | 1069 hPa | - | - | - | - |
| 1788616347 | 30.56° C | 50% | 1069.1 hPa | - | - | - | - |
| 1788615142 | 29.44° C | 61% | 1069.1 hPa | - | - | - | - |
| 1788613937 | 29.44° C | 59% | 1069.2 hPa | - | - | - | - |
| 1788612732 | 29.44° C | 55% | 1069.4 hPa | - | - | - | - |
| 1788611527 | 30° C | 48% | 1069.5 hPa | - | - | - | - |
| 1788610322 | 30° C | 44% | 1069.8 hPa | - | - | - | - |
| 1788610273 | 30° C | 44% | 1069.7 hPa | - | - | - | - |
| 1788609766 | 30° C | 44% | 1069.7 hPa | - | - | - | - |
| 1788608562 | 30.56° C | 46% | 1069.8 hPa | - | - | - | - |
| 1788607357 | 30.56° C | 43% | 1069.9 hPa | - | - | - | - |
| 1788606153 | 30.56° C | 42% | 1070 hPa | - | - | - | - |
| 1788604948 | 30° C | 44% | 1069.8 hPa | - | - | - | - |
* Rain since midnight (hover to see other rain measurements)
** Current wind speed in m/s (hover to see current wind gust speed)